sensor_id;sensor_type;location;lat;lon;timestamp;temperature;humidity
50690;DHT22;54375;48.298;11.238;2022-11-23T00:00:37;3.80;93.00
50690;DHT22;54375;48.298;11.238;2022-11-23T00:03:38;3.80;93.00
50690;DHT22;54375;48.298;11.238;2022-11-23T00:06:40;3.80;93.00
50690;DHT22;54375;48.298;11.238;2022-11-23T00:09:41;3.80;93.00
50690;DHT22;54375;48.298;11.238;2022-11-23T00:12:43;3.80;93.00
50690;DHT22;54375;48.298;11.238;2022-11-23T00:15:44;3.80;93.00
50690;DHT22;54375;48.298;11.238;2022-11-23T00:18:46;3.70;93.00
50690;DHT22;54375;48.298;11.238;2022-11-23T00:21:47;3.70;93.00
50690;DHT22;54375;48.298;11.238;2022-11-23T00:24:48;3.70;93.10
50690;DHT22;54375;48.298;11.238;2022-11-23T00:27:51;3.70;93.10
50690;DHT22;54375;48.298;11.238;2022-11-23T00:30:52;3.70;93.20
50690;DHT22;54375;48.298;11.238;2022-11-23T00:33:54;3.70;93.20
50690;DHT22;54375;48.298;11.238;2022-11-23T00:36:55;3.70;93.20
50690;DHT22;54375;48.298;11.238;2022-11-23T00:39:56;3.70;93.20
50690;DHT22;54375;48.298;11.238;2022-11-23T00:42:59;3.70;93.20
50690;DHT22;54375;48.298;11.238;2022-11-23T00:46:04;3.60;93.20
50690;DHT22;54375;48.298;11.238;2022-11-23T00:49:05;3.70;93.20
50690;DHT22;54375;48.298;11.238;2022-11-23T00:52:06;3.60;93.20
50690;DHT22;54375;48.298;11.238;2022-11-23T00:55:07;3.60;93.20
50690;DHT22;54375;48.298;11.238;2022-11-23T00:58:10;3.60;93.20
50690;DHT22;54375;48.298;11.238;2022-11-23T01:01:12;3.50;93.20
50690;DHT22;54375;48.298;11.238;2022-11-23T01:04:14;3.50;93.20
50690;DHT22;54375;48.298;11.238;2022-11-23T01:07:15;3.50;93.10
50690;DHT22;54375;48.298;11.238;2022-11-23T01:10:16;3.50;93.10
50690;DHT22;54375;48.298;11.238;2022-11-23T01:13:19;3.40;93.10
50690;DHT22;54375;48.298;11.238;2022-11-23T01:16:22;3.40;93.40
50690;DHT22;54375;48.298;11.238;2022-11-23T01:19:23;3.40;93.10
50690;DHT22;54375;48.298;11.238;2022-11-23T01:22:25;3.30;93.10
50690;DHT22;54375;48.298;11.238;2022-11-23T01:25:27;3.30;93.10
50690;DHT22;54375;48.298;11.238;2022-11-23T01:28:29;3.30;93.10
50690;DHT22;54375;48.298;11.238;2022-11-23T01:31:30;3.20;93.10
50690;DHT22;54375;48.298;11.238;2022-11-23T01:34:31;3.20;93.10
50690;DHT22;54375;48.298;11.238;2022-11-23T01:37:32;3.20;93.20
50690;DHT22;54375;48.298;11.238;2022-11-23T01:40:39;3.10;93.20
50690;DHT22;54375;48.298;11.238;2022-11-23T01:43:42;3.10;93.20
50690;DHT22;54375;48.298;11.238;2022-11-23T01:46:43;3.00;93.20
50690;DHT22;54375;48.298;11.238;2022-11-23T01:49:46;3.00;93.20
50690;DHT22;54375;48.298;11.238;2022-11-23T01:52:49;3.00;93.20
50690;DHT22;54375;48.298;11.238;2022-11-23T01:55:51;2.90;93.20
50690;DHT22;54375;48.298;11.238;2022-11-23T01:58:56;2.90;93.20
50690;DHT22;54375;48.298;11.238;2022-11-23T02:01:58;2.90;93.20
50690;DHT22;54375;48.298;11.238;2022-11-23T02:04:59;2.90;93.20
50690;DHT22;54375;48.298;11.238;2022-11-23T02:08:02;2.90;93.30
50690;DHT22;54375;48.298;11.238;2022-11-23T02:11:03;2.80;93.30
50690;DHT22;54375;48.298;11.238;2022-11-23T02:14:06;2.80;93.30
50690;DHT22;54375;48.298;11.238;2022-11-23T02:17:07;2.80;93.40
50690;DHT22;54375;48.298;11.238;2022-11-23T02:20:10;2.80;93.40
50690;DHT22;54375;48.298;11.238;2022-11-23T02:23:23;2.80;93.40
50690;DHT22;54375;48.298;11.238;2022-11-23T02:26:28;2.80;93.50
50690;DHT22;54375;48.298;11.238;2022-11-23T02:29:31;2.70;93.60
50690;DHT22;54375;48.298;11.238;2022-11-23T02:32:33;2.70;93.70
50690;DHT22;54375;48.298;11.238;2022-11-23T02:35:34;2.80;93.80
50690;DHT22;54375;48.298;11.238;2022-11-23T02:38:35;2.80;93.80
50690;DHT22;54375;48.298;11.238;2022-11-23T02:41:40;2.80;93.90
50690;DHT22;54375;48.298;11.238;2022-11-23T02:44:45;2.80;93.90
50690;DHT22;54375;48.298;11.238;2022-11-23T02:47:48;2.80;93.90
50690;DHT22;54375;48.298;11.238;2022-11-23T02:50:50;2.80;93.90
50690;DHT22;54375;48.298;11.238;2022-11-23T02:53:51;2.80;93.90
50690;DHT22;54375;48.298;11.238;2022-11-23T02:56:55;2.80;93.90
50690;DHT22;54375;48.298;11.238;2022-11-23T02:59:59;2.90;93.90
50690;DHT22;54375;48.298;11.238;2022-11-23T03:03:01;2.80;94.00
50690;DHT22;54375;48.298;11.238;2022-11-23T03:06:02;2.80;94.00
50690;DHT22;54375;48.298;11.238;2022-11-23T03:09:04;2.90;94.00
50690;DHT22;54375;48.298;11.238;2022-11-23T03:12:07;2.90;94.00
50690;DHT22;54375;48.298;11.238;2022-11-23T03:15:09;2.90;94.00
50690;DHT22;54375;48.298;11.238;2022-11-23T03:18:10;2.90;94.00
50690;DHT22;54375;48.298;11.238;2022-11-23T03:21:11;2.90;94.00
50690;DHT22;54375;48.298;11.238;2022-11-23T03:24:12;2.90;94.00
50690;DHT22;54375;48.298;11.238;2022-11-23T03:27:15;2.90;94.10
50690;DHT22;54375;48.298;11.238;2022-11-23T03:30:16;2.90;94.00
50690;DHT22;54375;48.298;11.238;2022-11-23T03:33:17;2.90;94.00
50690;DHT22;54375;48.298;11.238;2022-11-23T03:36:18;2.90;94.00
50690;DHT22;54375;48.298;11.238;2022-11-23T03:39:19;2.80;94.00
50690;DHT22;54375;48.298;11.238;2022-11-23T03:42:22;2.80;94.00
50690;DHT22;54375;48.298;11.238;2022-11-23T03:45:23;2.80;93.90
50690;DHT22;54375;48.298;11.238;2022-11-23T03:48:24;2.70;94.20
50690;DHT22;54375;48.298;11.238;2022-11-23T03:51:25;2.70;93.90
50690;DHT22;54375;48.298;11.238;2022-11-23T03:54:25;2.60;93.90
50690;DHT22;54375;48.298;11.238;2022-11-23T03:57:28;2.60;93.90
50690;DHT22;54375;48.298;11.238;2022-11-23T04:00:29;2.60;93.90
50690;DHT22;54375;48.298;11.238;2022-11-23T04:03:30;2.60;93.90
50690;DHT22;54375;48.298;11.238;2022-11-23T04:06:31;2.60;93.90
50690;DHT22;54375;48.298;11.238;2022-11-23T04:09:32;2.50;93.90
50690;DHT22;54375;48.298;11.238;2022-11-23T04:12:34;2.50;93.90
50690;DHT22;54375;48.298;11.238;2022-11-23T04:15:35;2.50;94.00
50690;DHT22;54375;48.298;11.238;2022-11-23T04:18:36;2.50;94.00
50690;DHT22;54375;48.298;11.238;2022-11-23T04:21:37;2.60;94.00
50690;DHT22;54375;48.298;11.238;2022-11-23T04:24:37;2.50;94.00
50690;DHT22;54375;48.298;11.238;2022-11-23T04:27:40;2.50;94.00
50690;DHT22;54375;48.298;11.238;2022-11-23T04:30:41;2.50;94.00
50690;DHT22;54375;48.298;11.238;2022-11-23T04:33:42;2.50;94.10
50690;DHT22;54375;48.298;11.238;2022-11-23T04:36:43;2.60;94.10
50690;DHT22;54375;48.298;11.238;2022-11-23T04:39:44;2.50;94.10
50690;DHT22;54375;48.298;11.238;2022-11-23T04:42:47;2.60;94.10
50690;DHT22;54375;48.298;11.238;2022-11-23T04:45:48;2.60;94.20
50690;DHT22;54375;48.298;11.238;2022-11-23T04:48:49;2.60;94.20
50690;DHT22;54375;48.298;11.238;2022-11-23T04:51:50;2.60;94.30
50690;DHT22;54375;48.298;11.238;2022-11-23T04:54:51;2.60;94.20
50690;DHT22;54375;48.298;11.238;2022-11-23T04:57:53;2.60;94.20
50690;DHT22;54375;48.298;11.238;2022-11-23T05:00:56;2.60;94.20
50690;DHT22;54375;48.298;11.238;2022-11-23T05:03:57;2.70;94.30
50690;DHT22;54375;48.298;11.238;2022-11-23T05:06:58;2.70;94.30
50690;DHT22;54375;48.298;11.238;2022-11-23T05:09:59;2.70;94.30
50690;DHT22;54375;48.298;11.238;2022-11-23T05:13:01;2.80;94.30
50690;DHT22;54375;48.298;11.238;2022-11-23T05:16:01;2.80;94.40
50690;DHT22;54375;48.298;11.238;2022-11-23T05:19:02;2.80;94.30
50690;DHT22;54375;48.298;11.238;2022-11-23T05:22:03;2.90;94.30
50690;DHT22;54375;48.298;11.238;2022-11-23T05:25:05;2.90;94.30
50690;DHT22;54375;48.298;11.238;2022-11-23T05:28:09;2.90;94.30
50690;DHT22;54375;48.298;11.238;2022-11-23T05:31:14;2.90;94.20
50690;DHT22;54375;48.298;11.238;2022-11-23T05:34:15;3.00;94.20
50690;DHT22;54375;48.298;11.238;2022-11-23T05:37:16;3.00;94.20
50690;DHT22;54375;48.298;11.238;2022-11-23T05:40:16;3.00;94.30
50690;DHT22;54375;48.298;11.238;2022-11-23T05:43:19;3.00;94.30
50690;DHT22;54375;48.298;11.238;2022-11-23T05:46:20;3.00;94.20
50690;DHT22;54375;48.298;11.238;2022-11-23T05:49:21;3.00;94.30
50690;DHT22;54375;48.298;11.238;2022-11-23T05:52:23;3.10;94.30
50690;DHT22;54375;48.298;11.238;2022-11-23T05:55:25;3.10;94.30
50690;DHT22;54375;48.298;11.238;2022-11-23T05:58:28;3.10;94.20
50690;DHT22;54375;48.298;11.238;2022-11-23T06:01:29;3.10;94.20
50690;DHT22;54375;48.298;11.238;2022-11-23T06:04:30;3.10;94.20
50690;DHT22;54375;48.298;11.238;2022-11-23T06:07:31;3.10;94.10
50690;DHT22;54375;48.298;11.238;2022-11-23T06:10:32;3.10;94.10
50690;DHT22;54375;48.298;11.238;2022-11-23T06:13:34;3.10;94.10
50690;DHT22;54375;48.298;11.238;2022-11-23T06:16:35;3.10;94.10
50690;DHT22;54375;48.298;11.238;2022-11-23T06:19:36;3.10;94.10
50690;DHT22;54375;48.298;11.238;2022-11-23T06:22:37;3.20;94.00
50690;DHT22;54375;48.298;11.238;2022-11-23T06:25:38;3.10;94.00
50690;DHT22;54375;48.298;11.238;2022-11-23T06:28:40;3.10;94.00
50690;DHT22;54375;48.298;11.238;2022-11-23T06:31:41;3.10;94.00
50690;DHT22;54375;48.298;11.238;2022-11-23T06:34:42;3.10;94.00
50690;DHT22;54375;48.298;11.238;2022-11-23T06:37:43;3.10;94.00
50690;DHT22;54375;48.298;11.238;2022-11-23T06:40:45;3.20;94.00
50690;DHT22;54375;48.298;11.238;2022-11-23T06:43:47;3.20;94.00
50690;DHT22;54375;48.298;11.238;2022-11-23T06:46:48;3.10;94.00
50690;DHT22;54375;48.298;11.238;2022-11-23T06:49:49;3.20;94.00
50690;DHT22;54375;48.298;11.238;2022-11-23T06:52:53;3.20;94.00
50690;DHT22;54375;48.298;11.238;2022-11-23T06:55:57;3.10;93.90
50690;DHT22;54375;48.298;11.238;2022-11-23T06:59:00;3.20;93.90
50690;DHT22;54375;48.298;11.238;2022-11-23T07:02:01;3.10;93.90
50690;DHT22;54375;48.298;11.238;2022-11-23T07:05:02;3.20;93.90
50690;DHT22;54375;48.298;11.238;2022-11-23T07:08:03;3.20;93.90
50690;DHT22;54375;48.298;11.238;2022-11-23T07:11:05;3.20;93.90
50690;DHT22;54375;48.298;11.238;2022-11-23T07:14:07;3.20;94.00
50690;DHT22;54375;48.298;11.238;2022-11-23T07:17:08;3.20;94.00
50690;DHT22;54375;48.298;11.238;2022-11-23T07:20:11;3.20;93.90
50690;DHT22;54375;48.298;11.238;2022-11-23T07:23:12;3.30;94.00
50690;DHT22;54375;48.298;11.238;2022-11-23T07:26:12;3.30;94.00
50690;DHT22;54375;48.298;11.238;2022-11-23T07:29:15;3.30;94.00
50690;DHT22;54375;48.298;11.238;2022-11-23T07:32:15;3.40;94.10
50690;DHT22;54375;48.298;11.238;2022-11-23T07:35:17;3.40;94.10
50690;DHT22;54375;48.298;11.238;2022-11-23T07:38:18;3.50;94.00
50690;DHT22;54375;48.298;11.238;2022-11-23T07:41:18;3.50;93.90
50690;DHT22;54375;48.298;11.238;2022-11-23T07:44:21;3.60;93.90
50690;DHT22;54375;48.298;11.238;2022-11-23T07:47:21;3.70;93.90
50690;DHT22;54375;48.298;11.238;2022-11-23T07:50:22;3.70;93.90
50690;DHT22;54375;48.298;11.238;2022-11-23T07:53:23;3.80;93.90
50690;DHT22;54375;48.298;11.238;2022-11-23T07:56:24;3.90;93.80
50690;DHT22;54375;48.298;11.238;2022-11-23T07:59:27;4.00;93.80
50690;DHT22;54375;48.298;11.238;2022-11-23T08:02:28;4.10;93.70
50690;DHT22;54375;48.298;11.238;2022-11-23T08:05:30;4.20;93.60
50690;DHT22;54375;48.298;11.238;2022-11-23T08:08:31;4.20;93.50
50690;DHT22;54375;48.298;11.238;2022-11-23T08:11:32;4.30;93.50
50690;DHT22;54375;48.298;11.238;2022-11-23T08:14:34;4.40;93.40
50690;DHT22;54375;48.298;11.238;2022-11-23T08:17:36;4.40;93.30
50690;DHT22;54375;48.298;11.238;2022-11-23T08:20:37;4.50;93.20
50690;DHT22;54375;48.298;11.238;2022-11-23T08:23:38;4.60;93.20
50690;DHT22;54375;48.298;11.238;2022-11-23T08:26:39;4.60;93.00
50690;DHT22;54375;48.298;11.238;2022-11-23T08:29:42;4.70;92.90
50690;DHT22;54375;48.298;11.238;2022-11-23T08:32:43;4.70;92.70
50690;DHT22;54375;48.298;11.238;2022-11-23T08:35:43;4.80;92.60
50690;DHT22;54375;48.298;11.238;2022-11-23T08:38:44;4.80;92.60
50690;DHT22;54375;48.298;11.238;2022-11-23T08:41:45;4.90;92.50
50690;DHT22;54375;48.298;11.238;2022-11-23T08:44:48;4.90;92.30
50690;DHT22;54375;48.298;11.238;2022-11-23T08:47:49;5.00;92.30
50690;DHT22;54375;48.298;11.238;2022-11-23T08:50:50;5.00;92.30
50690;DHT22;54375;48.298;11.238;2022-11-23T08:53:51;5.10;92.30
50690;DHT22;54375;48.298;11.238;2022-11-23T08:56:52;5.20;92.20
50690;DHT22;54375;48.298;11.238;2022-11-23T08:59:54;5.30;92.20
50690;DHT22;54375;48.298;11.238;2022-11-23T09:02:55;5.50;92.10
50690;DHT22;54375;48.298;11.238;2022-11-23T09:05:58;5.60;92.00
50690;DHT22;54375;48.298;11.238;2022-11-23T09:09:00;5.80;92.00
50690;DHT22;54375;48.298;11.238;2022-11-23T09:12:01;6.00;91.90
50690;DHT22;54375;48.298;11.238;2022-11-23T09:15:04;6.20;91.40
50690;DHT22;54375;48.298;11.238;2022-11-23T09:18:05;6.40;91.10
50690;DHT22;54375;48.298;11.238;2022-11-23T09:21:06;6.70;90.40
50690;DHT22;54375;48.298;11.238;2022-11-23T09:24:09;6.90;90.10
50690;DHT22;54375;48.298;11.238;2022-11-23T09:27:10;7.20;89.30
50690;DHT22;54375;48.298;11.238;2022-11-23T09:30:14;7.50;87.10
50690;DHT22;54375;48.298;11.238;2022-11-23T09:33:15;7.70;86.40
50690;DHT22;54375;48.298;11.238;2022-11-23T09:36:16;7.90;86.00
50690;DHT22;54375;48.298;11.238;2022-11-23T09:39:17;8.10;85.70
50690;DHT22;54375;48.298;11.238;2022-11-23T09:42:42;8.30;85.00
50690;DHT22;54375;48.298;11.238;2022-11-23T09:45:48;8.60;84.00
50690;DHT22;54375;48.298;11.238;2022-11-23T09:49:07;8.80;82.10
50690;DHT22;54375;48.298;11.238;2022-11-23T09:52:14;9.10;82.10
50690;DHT22;54375;48.298;11.238;2022-11-23T09:55:20;9.30;81.00
50690;DHT22;54375;48.298;11.238;2022-11-23T09:58:26;9.50;79.50
50690;DHT22;54375;48.298;11.238;2022-11-23T10:01:31;9.60;77.70
50690;DHT22;54375;48.298;11.238;2022-11-23T10:04:33;9.80;77.00
50690;DHT22;54375;48.298;11.238;2022-11-23T10:07:47;9.90;76.50
50690;DHT22;54375;48.298;11.238;2022-11-23T10:10:56;10.10;76.80
50690;DHT22;54375;48.298;11.238;2022-11-23T10:14:07;10.30;76.30
50690;DHT22;54375;48.298;11.238;2022-11-23T10:17:20;10.40;75.30
50690;DHT22;54375;48.298;11.238;2022-11-23T10:20:39;10.50;73.40
50690;DHT22;54375;48.298;11.238;2022-11-23T10:23:52;10.40;71.70
50690;DHT22;54375;48.298;11.238;2022-11-23T10:26:54;10.30;72.10
50690;DHT22;54375;48.298;11.238;2022-11-23T10:29:56;10.20;71.10
50690;DHT22;54375;48.298;11.238;2022-11-23T10:33:04;10.10;71.00
50690;DHT22;54375;48.298;11.238;2022-11-23T10:36:10;10.00;71.50
50690;DHT22;54375;48.298;11.238;2022-11-23T10:39:16;10.00;71.70
50690;DHT22;54375;48.298;11.238;2022-11-23T10:42:23;10.10;71.70
50690;DHT22;54375;48.298;11.238;2022-11-23T10:45:26;10.10;72.30
50690;DHT22;54375;48.298;11.238;2022-11-23T10:48:34;10.20;71.90
50690;DHT22;54375;48.298;11.238;2022-11-23T10:51:36;10.30;71.20
50690;DHT22;54375;48.298;11.238;2022-11-23T10:54:46;10.50;71.00
50690;DHT22;54375;48.298;11.238;2022-11-23T10:57:49;10.50;69.00
50690;DHT22;54375;48.298;11.238;2022-11-23T11:00:58;10.50;69.30
50690;DHT22;54375;48.298;11.238;2022-11-23T11:04:02;10.60;69.40
50690;DHT22;54375;48.298;11.238;2022-11-23T11:07:20;10.60;69.30
50690;DHT22;54375;48.298;11.238;2022-11-23T11:10:40;10.50;68.30
50690;DHT22;54375;48.298;11.238;2022-11-23T11:13:43;10.60;68.20
50690;DHT22;54375;48.298;11.238;2022-11-23T11:16:47;10.60;68.30
50690;DHT22;54375;48.298;11.238;2022-11-23T11:19:51;10.70;68.10
50690;DHT22;54375;48.298;11.238;2022-11-23T11:22:53;10.80;67.90
50690;DHT22;54375;48.298;11.238;2022-11-23T11:26:15;10.90;67.50
50690;DHT22;54375;48.298;11.238;2022-11-23T11:29:30;10.90;66.20
50690;DHT22;54375;48.298;11.238;2022-11-23T11:32:37;10.90;65.80
50690;DHT22;54375;48.298;11.238;2022-11-23T11:35:47;10.90;65.10
50690;DHT22;54375;48.298;11.238;2022-11-23T11:38:50;10.80;65.60
50690;DHT22;54375;48.298;11.238;2022-11-23T11:41:53;10.80;65.00
50690;DHT22;54375;48.298;11.238;2022-11-23T11:44:59;10.80;64.50
50690;DHT22;54375;48.298;11.238;2022-11-23T11:48:08;10.80;64.60
50690;DHT22;54375;48.298;11.238;2022-11-23T11:51:16;11.00;65.40
50690;DHT22;54375;48.298;11.238;2022-11-23T11:54:25;11.10;64.60
50690;DHT22;54375;48.298;11.238;2022-11-23T11:57:34;11.20;63.40
50690;DHT22;54375;48.298;11.238;2022-11-23T12:00:37;11.30;63.30
50690;DHT22;54375;48.298;11.238;2022-11-23T12:03:41;11.30;63.40
50690;DHT22;54375;48.298;11.238;2022-11-23T12:06:49;11.40;63.70
50690;DHT22;54375;48.298;11.238;2022-11-23T12:09:56;11.40;63.80
50690;DHT22;54375;48.298;11.238;2022-11-23T12:13:00;11.50;63.40
50690;DHT22;54375;48.298;11.238;2022-11-23T12:16:09;11.60;62.20
50690;DHT22;54375;48.298;11.238;2022-11-23T12:19:18;11.50;61.60
50690;DHT22;54375;48.298;11.238;2022-11-23T12:22:35;11.40;61.70
50690;DHT22;54375;48.298;11.238;2022-11-23T12:25:43;11.30;61.90
50690;DHT22;54375;48.298;11.238;2022-11-23T12:29:00;11.50;61.70
50690;DHT22;54375;48.298;11.238;2022-11-23T12:32:16;11.70;62.20
50690;DHT22;54375;48.298;11.238;2022-11-23T12:35:38;11.70;60.60
50690;DHT22;54375;48.298;11.238;2022-11-23T12:38:50;11.60;59.70
50690;DHT22;54375;48.298;11.238;2022-11-23T12:41:58;11.50;60.30
50690;DHT22;54375;48.298;11.238;2022-11-23T12:45:15;11.50;60.70
50690;DHT22;54375;48.298;11.238;2022-11-23T12:48:25;11.50;60.80
50690;DHT22;54375;48.298;11.238;2022-11-23T12:51:35;11.70;60.30
50690;DHT22;54375;48.298;11.238;2022-11-23T12:54:48;11.90;58.60
50690;DHT22;54375;48.298;11.238;2022-11-23T12:58:00;12.00;58.00
50690;DHT22;54375;48.298;11.238;2022-11-23T13:01:08;11.90;57.50
50690;DHT22;54375;48.298;11.238;2022-11-23T13:04:31;11.90;57.60
50690;DHT22;54375;48.298;11.238;2022-11-23T13:08:02;11.80;55.90
50690;DHT22;54375;48.298;11.238;2022-11-23T13:11:19;11.70;56.60
50690;DHT22;54375;48.298;11.238;2022-11-23T13:14:30;11.80;57.80
50690;DHT22;54375;48.298;11.238;2022-11-23T13:17:41;12.00;57.20
50690;DHT22;54375;48.298;11.238;2022-11-23T13:24:26;12.00;56.10
50690;DHT22;54375;48.298;11.238;2022-11-23T13:27:41;12.00;57.00
50690;DHT22;54375;48.298;11.238;2022-11-23T13:30:43;12.10;57.60
50690;DHT22;54375;48.298;11.238;2022-11-23T13:33:45;12.10;56.20
50690;DHT22;54375;48.298;11.238;2022-11-23T13:36:58;12.10;56.00
50690;DHT22;54375;48.298;11.238;2022-11-23T13:40:01;12.20;56.40
50690;DHT22;54375;48.298;11.238;2022-11-23T13:43:10;12.20;56.30
50690;DHT22;54375;48.298;11.238;2022-11-23T13:46:21;12.20;56.00
50690;DHT22;54375;48.298;11.238;2022-11-23T13:49:39;12.10;55.60
50690;DHT22;54375;48.298;11.238;2022-11-23T13:52:47;12.00;56.10
50690;DHT22;54375;48.298;11.238;2022-11-23T13:55:51;11.90;56.00
50690;DHT22;54375;48.298;11.238;2022-11-23T13:58:54;11.90;56.80
50690;DHT22;54375;48.298;11.238;2022-11-23T14:02:24;11.80;56.90
50690;DHT22;54375;48.298;11.238;2022-11-23T14:05:55;11.70;57.20
50690;DHT22;54375;48.298;11.238;2022-11-23T14:09:02;11.50;56.50
50690;DHT22;54375;48.298;11.238;2022-11-23T14:12:11;11.30;57.20
50690;DHT22;54375;48.298;11.238;2022-11-23T14:15:17;11.10;57.40
50690;DHT22;54375;48.298;11.238;2022-11-23T14:18:37;10.90;58.20
50690;DHT22;54375;48.298;11.238;2022-11-23T14:21:46;10.60;58.80
50690;DHT22;54375;48.298;11.238;2022-11-23T14:24:58;10.50;60.10
50690;DHT22;54375;48.298;11.238;2022-11-23T14:28:09;10.30;60.60
50690;DHT22;54375;48.298;11.238;2022-11-23T14:31:24;10.20;61.20
50690;DHT22;54375;48.298;11.238;2022-11-23T14:34:32;10.00;61.30
50690;DHT22;54375;48.298;11.238;2022-11-23T14:37:42;9.80;61.30
50690;DHT22;54375;48.298;11.238;2022-11-23T14:40:55;9.60;61.20
50690;DHT22;54375;48.298;11.238;2022-11-23T14:43:59;9.40;62.10
50690;DHT22;54375;48.298;11.238;2022-11-23T14:47:03;9.20;62.60
50690;DHT22;54375;48.298;11.238;2022-11-23T14:50:05;9.10;63.40
50690;DHT22;54375;48.298;11.238;2022-11-23T14:53:16;8.90;64.00
50690;DHT22;54375;48.298;11.238;2022-11-23T14:56:20;8.80;64.30
50690;DHT22;54375;48.298;11.238;2022-11-23T14:59:25;8.60;65.00
50690;DHT22;54375;48.298;11.238;2022-11-23T15:02:33;8.50;65.40
50690;DHT22;54375;48.298;11.238;2022-11-23T15:05:36;8.40;66.10
50690;DHT22;54375;48.298;11.238;2022-11-23T15:08:44;8.20;66.70
50690;DHT22;54375;48.298;11.238;2022-11-23T15:11:46;8.10;67.50
50690;DHT22;54375;48.298;11.238;2022-11-23T15:14:47;7.90;67.70
50690;DHT22;54375;48.298;11.238;2022-11-23T15:17:54;7.70;68.00
50690;DHT22;54375;48.298;11.238;2022-11-23T15:20:57;7.50;68.60
50690;DHT22;54375;48.298;11.238;2022-11-23T15:24:00;7.30;69.50
50690;DHT22;54375;48.298;11.238;2022-11-23T15:27:03;7.20;70.30
50690;DHT22;54375;48.298;11.238;2022-11-23T15:33:18;6.90;71.00
50690;DHT22;54375;48.298;11.238;2022-11-23T15:36:23;6.70;71.30
50690;DHT22;54375;48.298;11.238;2022-11-23T15:39:25;6.50;71.70
50690;DHT22;54375;48.298;11.238;2022-11-23T15:42:26;6.30;72.20
50690;DHT22;54375;48.298;11.238;2022-11-23T15:45:34;6.20;72.90
50690;DHT22;54375;48.298;11.238;2022-11-23T15:48:37;6.00;73.60
50690;DHT22;54375;48.298;11.238;2022-11-23T15:51:39;5.80;74.90
50690;DHT22;54375;48.298;11.238;2022-11-23T15:54:41;5.60;74.80
50690;DHT22;54375;48.298;11.238;2022-11-23T15:57:43;5.40;75.60
50690;DHT22;54375;48.298;11.238;2022-11-23T16:00:48;5.30;76.90
50690;DHT22;54375;48.298;11.238;2022-11-23T16:03:52;5.10;77.10
50690;DHT22;54375;48.298;11.238;2022-11-23T16:06:53;4.90;78.10
50690;DHT22;54375;48.298;11.238;2022-11-23T16:10:10;4.80;79.00
50690;DHT22;54375;48.298;11.238;2022-11-23T16:13:34;4.60;80.00
50690;DHT22;54375;48.298;11.238;2022-11-23T16:16:35;4.50;80.80
50690;DHT22;54375;48.298;11.238;2022-11-23T16:19:38;4.30;81.20
50690;DHT22;54375;48.298;11.238;2022-11-23T16:22:47;4.10;81.50
50690;DHT22;54375;48.298;11.238;2022-11-23T16:25:53;4.00;82.10
50690;DHT22;54375;48.298;11.238;2022-11-23T16:28:57;3.90;82.40
50690;DHT22;54375;48.298;11.238;2022-11-23T16:31:59;3.70;82.40
50690;DHT22;54375;48.298;11.238;2022-11-23T16:35:14;3.60;82.60
50690;DHT22;54375;48.298;11.238;2022-11-23T16:38:16;3.50;82.90
50690;DHT22;54375;48.298;11.238;2022-11-23T16:41:17;3.40;84.20
50690;DHT22;54375;48.298;11.238;2022-11-23T16:44:19;3.30;84.20
50690;DHT22;54375;48.298;11.238;2022-11-23T16:47:22;3.20;84.70
50690;DHT22;54375;48.298;11.238;2022-11-23T16:50:27;3.10;85.50
50690;DHT22;54375;48.298;11.238;2022-11-23T16:53:28;3.00;86.80
50690;DHT22;54375;48.298;11.238;2022-11-23T16:56:29;2.90;87.80
50690;DHT22;54375;48.298;11.238;2022-11-23T16:59:30;2.80;88.20
50690;DHT22;54375;48.298;11.238;2022-11-23T17:02:31;2.70;88.50
50690;DHT22;54375;48.298;11.238;2022-11-23T17:05:33;2.60;89.10
50690;DHT22;54375;48.298;11.238;2022-11-23T17:08:34;2.60;89.60
50690;DHT22;54375;48.298;11.238;2022-11-23T17:11:38;2.50;89.80
50690;DHT22;54375;48.298;11.238;2022-11-23T17:14:41;2.40;90.30
50690;DHT22;54375;48.298;11.238;2022-11-23T17:17:41;2.30;90.30
50690;DHT22;54375;48.298;11.238;2022-11-23T17:20:44;2.20;90.30
50690;DHT22;54375;48.298;11.238;2022-11-23T17:23:45;2.20;90.30
50690;DHT22;54375;48.298;11.238;2022-11-23T17:26:47;2.10;90.50
50690;DHT22;54375;48.298;11.238;2022-11-23T17:29:54;2.00;90.50
50690;DHT22;54375;48.298;11.238;2022-11-23T17:32:56;1.90;90.50
50690;DHT22;54375;48.298;11.238;2022-11-23T17:35:58;1.90;90.40
50690;DHT22;54375;48.298;11.238;2022-11-23T17:38:59;1.80;90.30
50690;DHT22;54375;48.298;11.238;2022-11-23T17:42:00;1.80;90.20
50690;DHT22;54375;48.298;11.238;2022-11-23T17:45:02;1.70;90.10
50690;DHT22;54375;48.298;11.238;2022-11-23T17:48:04;1.60;89.90
50690;DHT22;54375;48.298;11.238;2022-11-23T17:51:08;1.60;90.20
50690;DHT22;54375;48.298;11.238;2022-11-23T17:54:10;1.50;90.60
50690;DHT22;54375;48.298;11.238;2022-11-23T17:57:13;1.50;91.20
50690;DHT22;54375;48.298;11.238;2022-11-23T18:00:17;1.60;91.40
50690;DHT22;54375;48.298;11.238;2022-11-23T18:03:18;1.60;91.30
50690;DHT22;54375;48.298;11.238;2022-11-23T18:06:23;1.60;91.40
50690;DHT22;54375;48.298;11.238;2022-11-23T18:09:24;1.60;91.60
50690;DHT22;54375;48.298;11.238;2022-11-23T18:12:25;1.60;91.60
50690;DHT22;54375;48.298;11.238;2022-11-23T18:15:26;1.60;92.10
50690;DHT22;54375;48.298;11.238;2022-11-23T18:18:27;1.60;91.90
50690;DHT22;54375;48.298;11.238;2022-11-23T18:21:29;1.60;91.90
50690;DHT22;54375;48.298;11.238;2022-11-23T18:24:30;1.60;92.10
50690;DHT22;54375;48.298;11.238;2022-11-23T18:27:31;1.70;92.40
50690;DHT22;54375;48.298;11.238;2022-11-23T18:30:32;1.70;92.20
50690;DHT22;54375;48.298;11.238;2022-11-23T18:33:34;1.70;92.10
50690;DHT22;54375;48.298;11.238;2022-11-23T18:36:36;1.60;92.30
50690;DHT22;54375;48.298;11.238;2022-11-23T18:39:37;1.60;92.10
50690;DHT22;54375;48.298;11.238;2022-11-23T18:42:39;1.60;92.00
50690;DHT22;54375;48.298;11.238;2022-11-23T18:45:40;1.60;92.00
50690;DHT22;54375;48.298;11.238;2022-11-23T18:48:41;1.60;92.10
50690;DHT22;54375;48.298;11.238;2022-11-23T18:51:44;1.60;92.30
50690;DHT22;54375;48.298;11.238;2022-11-23T18:54:45;1.60;92.50
50690;DHT22;54375;48.298;11.238;2022-11-23T18:57:46;1.70;92.90
50690;DHT22;54375;48.298;11.238;2022-11-23T19:00:48;1.80;93.10
50690;DHT22;54375;48.298;11.238;2022-11-23T19:03:51;1.90;93.10
50690;DHT22;54375;48.298;11.238;2022-11-23T19:06:53;2.00;93.00
50690;DHT22;54375;48.298;11.238;2022-11-23T19:09:55;2.10;93.20
50690;DHT22;54375;48.298;11.238;2022-11-23T19:12:56;2.20;93.10
50690;DHT22;54375;48.298;11.238;2022-11-23T19:15:57;2.30;93.00
50690;DHT22;54375;48.298;11.238;2022-11-23T19:19:00;2.30;93.00
50690;DHT22;54375;48.298;11.238;2022-11-23T19:22:02;2.30;93.20
50690;DHT22;54375;48.298;11.238;2022-11-23T19:25:03;2.40;93.00